TRI2 YSSY-YMML
Flight info
| Callsign | TRI2 |
|---|---|
| Flight time | 1h 12m |
| Altitude | 36000 |
| Route | WOL H65 LEECE Q29 ML |
| Aircraft | B738/M-SDE2E3FGHIRWXY/LB1 |
Departure
| Time | 2026-04-23 12:30 |
|---|---|
| Airport | Sydney Kingsford Smith International Airport (YSSY) |
Arrival
| Time | 2026-04-23 13:43 |
|---|---|
| Airport | Melbourne Airport (YMML) |
| Time | Latitude | Longitude | Altitude | Speed | Heading |
|---|---|---|---|---|---|
| 2026-04-23 11:51 | -33.93625 | 151.18125 | 29 ft | 0 kts | 71° |
| 2026-04-23 12:13 | -33.93626 | 151.18122 | 29 ft | 2 kts | 71° |
| 2026-04-23 12:13 | -33.93631 | 151.18103 | 29 ft | 2 kts | 71° |
| 2026-04-23 12:14 | -33.93636 | 151.18085 | 29 ft | 2 kts | 71° |
| 2026-04-23 12:14 | -33.93641 | 151.18065 | 29 ft | 2 kts | 96° |
| 2026-04-23 12:14 | -33.93636 | 151.18050 | 29 ft | 1 kts | 156° |
| 2026-04-23 12:14 | -33.93629 | 151.18047 | 29 ft | 1 kts | 167° |
| 2026-04-23 12:15 | -33.93646 | 151.18051 | 29 ft | 3 kts | 167° |
| 2026-04-23 12:15 | -33.93648 | 151.18052 | 29 ft | 0 kts | 167° |
| 2026-04-23 12:20 | -33.93655 | 151.18053 | 29 ft | 3 kts | 170° |
| 2026-04-23 12:20 | -33.93667 | 151.18055 | 29 ft | 3 kts | 176° |
| 2026-04-23 12:20 | -33.93704 | 151.18058 | 29 ft | 7 kts | 174° |
| 2026-04-23 12:21 | -33.93750 | 151.18066 | 29 ft | 2 kts | 177° |
| 2026-04-23 12:21 | -33.93759 | 151.18065 | 29 ft | 0 kts | 182° |
| 2026-04-23 12:21 | -33.93764 | 151.18065 | 29 ft | 0 kts | 185° |
| 2026-04-23 12:22 | -33.93765 | 151.18064 | 29 ft | 1 kts | 191° |
| 2026-04-23 12:22 | -33.93769 | 151.18058 | 29 ft | 1 kts | 233° |
| 2026-04-23 12:22 | -33.93778 | 151.18036 | 29 ft | 5 kts | 249° |
| 2026-04-23 12:23 | -33.93790 | 151.17985 | 29 ft | 8 kts | 254° |
| 2026-04-23 12:23 | -33.93808 | 151.17909 | 29 ft | 11 kts | 253° |
| 2026-04-23 12:23 | -33.93823 | 151.17847 | 29 ft | 1 kts | 253° |
| 2026-04-23 12:23 | -33.93829 | 151.17822 | 29 ft | 5 kts | 254° |
| 2026-04-23 12:24 | -33.93843 | 151.17761 | 29 ft | 9 kts | 253° |
| 2026-04-23 12:24 | -33.93863 | 151.17678 | 28 ft | 11 kts | 251° |
| 2026-04-23 12:24 | -33.93848 | 151.17606 | 28 ft | 10 kts | 323° |
| 2026-04-23 12:24 | -33.93777 | 151.17579 | 28 ft | 13 kts | 347° |
| 2026-04-23 12:25 | -33.93694 | 151.17557 | 28 ft | 13 kts | 348° |
| 2026-04-23 12:25 | -33.93596 | 151.17532 | 28 ft | 15 kts | 348° |
| 2026-04-23 12:25 | -33.93487 | 151.17504 | 29 ft | 15 kts | 349° |
| 2026-04-23 12:25 | -33.93374 | 151.17502 | 29 ft | 17 kts | 353° |
| 2026-04-23 12:26 | -33.93264 | 151.17473 | 29 ft | 16 kts | 347° |
| 2026-04-23 12:26 | -33.93201 | 151.17457 | 29 ft | 5 kts | 348° |
| 2026-04-23 12:26 | -33.93154 | 151.17445 | 29 ft | 9 kts | 348° |
| 2026-04-23 12:26 | -33.93080 | 151.17426 | 29 ft | 10 kts | 347° |
| 2026-04-23 12:27 | -33.93022 | 151.17410 | 30 ft | 10 kts | 345° |
| 2026-04-23 12:27 | -33.92966 | 151.17347 | 30 ft | 13 kts | 285° |
| 2026-04-23 12:27 | -33.92959 | 151.17312 | 30 ft | 0 kts | 282° |
| 2026-04-23 12:28 | -33.92957 | 151.17295 | 30 ft | 4 kts | 279° |
| 2026-04-23 12:28 | -33.92958 | 151.17240 | 30 ft | 9 kts | 253° |
| 2026-04-23 12:29 | -33.93007 | 151.17190 | 29 ft | 10 kts | 197° |
| 2026-04-23 12:29 | -33.93051 | 151.17188 | 29 ft | 1 kts | 167° |
| 2026-04-23 12:29 | -33.93052 | 151.17188 | 29 ft | 0 kts | 167° |
| 2026-04-23 12:29 | -33.93055 | 151.17189 | 29 ft | 3 kts | 167° |
| 2026-04-23 12:30 | -33.93302 | 151.17256 | 29 ft | 74 kts | 167° |
| 2026-04-23 12:30 | -33.94033 | 151.17449 | 27 ft | 138 kts | 166° |
| 2026-04-23 12:30 | -33.95116 | 151.17697 | 257 ft | 169 kts | 170° |
| 2026-04-23 12:30 | -33.96186 | 151.17847 | 1425 ft | 139 kts | 173° |
| 2026-04-23 12:31 | -33.97139 | 151.17972 | 2050 ft | 147 kts | 166° |
| 2026-04-23 12:31 | -33.98305 | 151.18355 | 1832 ft | 206 kts | 160° |
| 2026-04-23 12:31 | -33.99855 | 151.18666 | 1979 ft | 237 kts | 186° |
| 2026-04-23 12:31 | -34.01520 | 151.18273 | 2547 ft | 250 kts | 188° |
| 2026-04-23 12:32 | -34.03250 | 151.17840 | 3231 ft | 257 kts | 193° |
| 2026-04-23 12:32 | -34.05019 | 151.17764 | 3904 ft | 258 kts | 162° |
| 2026-04-23 12:32 | -34.06671 | 151.18537 | 4652 ft | 259 kts | 157° |
| 2026-04-23 12:32 | -34.08388 | 151.19270 | 5393 ft | 263 kts | 160° |
| 2026-04-23 12:33 | -34.10151 | 151.19930 | 6108 ft | 267 kts | 161° |
| 2026-04-23 12:33 | -34.11946 | 151.20572 | 6880 ft | 270 kts | 162° |
| 2026-04-23 12:33 | -34.13765 | 151.21194 | 7623 ft | 272 kts | 162° |
| 2026-04-23 12:33 | -34.15594 | 151.21809 | 8416 ft | 273 kts | 162° |
| 2026-04-23 12:34 | -34.17434 | 151.22423 | 9221 ft | 275 kts | 163° |
| 2026-04-23 12:34 | -34.19360 | 151.22570 | 10001 ft | 284 kts | 188° |
| 2026-04-23 12:34 | -34.21197 | 151.21642 | 10781 ft | 292 kts | 213° |
| 2026-04-23 12:34 | -34.22667 | 151.19907 | 11551 ft | 298 kts | 226° |
| 2026-04-23 12:35 | -34.24018 | 151.17977 | 12305 ft | 302 kts | 227° |
| 2026-04-23 12:35 | -34.25365 | 151.16041 | 13078 ft | 306 kts | 226° |
| 2026-04-23 12:35 | -34.26746 | 151.14065 | 13900 ft | 309 kts | 226° |
| 2026-04-23 12:35 | -34.28149 | 151.12075 | 14683 ft | 312 kts | 226° |
| 2026-04-23 12:36 | -34.29566 | 151.10073 | 15477 ft | 313 kts | 226° |
| 2026-04-23 12:36 | -34.30989 | 151.08064 | 16285 ft | 315 kts | 226° |
| 2026-04-23 12:36 | -34.32423 | 151.06042 | 17091 ft | 317 kts | 226° |
| 2026-04-23 12:36 | -34.33868 | 151.04003 | 17886 ft | 320 kts | 226° |
| 2026-04-23 12:37 | -34.35313 | 151.01964 | 18686 ft | 322 kts | 226° |
| 2026-04-23 12:37 | -34.36797 | 150.99871 | 19090 ft | 336 kts | 226° |
| 2026-04-23 12:37 | -34.38459 | 150.97763 | 19231 ft | 355 kts | 220° |
| 2026-04-23 12:37 | -34.40328 | 150.95726 | 19628 ft | 365 kts | 219° |
| 2026-04-23 12:38 | -34.42235 | 150.93725 | 20241 ft | 368 kts | 218° |
| 2026-04-23 12:38 | -34.44179 | 150.91679 | 20928 ft | 370 kts | 219° |
| 2026-04-23 12:38 | -34.46123 | 150.89606 | 21556 ft | 374 kts | 219° |
| 2026-04-23 12:38 | -34.48084 | 150.87494 | 22155 ft | 378 kts | 219° |
| 2026-04-23 12:39 | -34.50053 | 150.85358 | 22753 ft | 382 kts | 220° |
| 2026-04-23 12:39 | -34.52037 | 150.83199 | 23344 ft | 385 kts | 220° |
| 2026-04-23 12:39 | -34.54044 | 150.81012 | 23939 ft | 389 kts | 220° |
| 2026-04-23 12:39 | -34.56039 | 150.78781 | 24436 ft | 393 kts | 225° |
| 2026-04-23 12:40 | -34.57783 | 150.76195 | 24927 ft | 397 kts | 231° |
| 2026-04-23 12:40 | -34.59415 | 150.73473 | 25425 ft | 400 kts | 232° |
| 2026-04-23 12:40 | -34.61024 | 150.70705 | 25906 ft | 403 kts | 233° |
| 2026-04-23 12:40 | -34.62626 | 150.67947 | 26378 ft | 405 kts | 232° |
| 2026-04-23 12:41 | -34.64263 | 150.65152 | 26972 ft | 404 kts | 232° |
| 2026-04-23 12:41 | -34.65897 | 150.62390 | 27636 ft | 401 kts | 232° |
| 2026-04-23 12:41 | -34.67533 | 150.59644 | 28249 ft | 400 kts | 232° |
| 2026-04-23 12:41 | -34.69170 | 150.56908 | 28823 ft | 400 kts | 232° |
| 2026-04-23 12:42 | -34.70829 | 150.54144 | 28972 ft | 411 kts | 232° |
| 2026-04-23 12:42 | -34.72541 | 150.51294 | 29066 ft | 422 kts | 232° |
| 2026-04-23 12:42 | -34.75468 | 150.46416 | 29308 ft | 436 kts | 232° |
| 2026-04-23 12:43 | -34.77851 | 150.42434 | 29829 ft | 439 kts | 232° |
| 2026-04-23 12:43 | -34.79651 | 150.39423 | 30271 ft | 440 kts | 232° |
| 2026-04-23 12:43 | -34.81449 | 150.36411 | 30745 ft | 439 kts | 232° |
| 2026-04-23 12:43 | -34.83242 | 150.33406 | 31230 ft | 437 kts | 232° |
| 2026-04-23 12:44 | -34.84422 | 150.31426 | 31568 ft | 435 kts | 232° |
| 2026-04-23 12:44 | -34.86192 | 150.28456 | 32048 ft | 433 kts | 232° |
| 2026-04-23 12:44 | -34.87957 | 150.25492 | 32481 ft | 431 kts | 232° |
| 2026-04-23 12:44 | -34.89716 | 150.22536 | 32924 ft | 430 kts | 232° |
| 2026-04-23 12:45 | -34.91469 | 150.19587 | 33374 ft | 428 kts | 231° |
| 2026-04-23 12:45 | -34.93208 | 150.16661 | 33832 ft | 426 kts | 231° |
| 2026-04-23 12:45 | -34.94942 | 150.13739 | 34279 ft | 424 kts | 231° |
| 2026-04-23 12:45 | -34.96665 | 150.10835 | 34684 ft | 422 kts | 231° |
| 2026-04-23 12:46 | -34.98382 | 150.07937 | 35022 ft | 421 kts | 231° |
| 2026-04-23 12:46 | -35.00097 | 150.05041 | 35340 ft | 420 kts | 231° |
| 2026-04-23 12:46 | -35.01806 | 150.02152 | 35673 ft | 419 kts | 231° |
| 2026-04-23 12:46 | -35.03489 | 149.99305 | 36012 ft | 417 kts | 230° |
| 2026-04-23 12:47 | -35.05189 | 149.96429 | 36232 ft | 419 kts | 230° |
| 2026-04-23 12:47 | -35.06907 | 149.93522 | 36312 ft | 424 kts | 230° |
| 2026-04-23 12:47 | -35.08635 | 149.90596 | 36609 ft | 423 kts | 230° |
| 2026-04-23 12:47 | -35.10335 | 149.87707 | 37154 ft | 415 kts | 230° |
| 2026-04-23 12:48 | -35.12007 | 149.84860 | 37725 ft | 408 kts | 230° |
| 2026-04-23 12:48 | -35.13650 | 149.82064 | 38197 ft | 403 kts | 230° |
| 2026-04-23 12:48 | -35.15282 | 149.79287 | 38523 ft | 401 kts | 229° |
| 2026-04-23 12:48 | -35.16913 | 149.76513 | 38735 ft | 402 kts | 229° |
| 2026-04-23 12:49 | -35.18543 | 149.73740 | 38962 ft | 402 kts | 229° |
| 2026-04-23 12:49 | -35.20170 | 149.70966 | 39229 ft | 401 kts | 229° |
| 2026-04-23 12:49 | -35.21790 | 149.68202 | 39446 ft | 400 kts | 229° |
| 2026-04-23 12:49 | -35.23409 | 149.65438 | 39618 ft | 400 kts | 229° |
| 2026-04-23 12:50 | -35.25033 | 149.62663 | 39771 ft | 400 kts | 229° |
| 2026-04-23 12:50 | -35.26630 | 149.59932 | 39959 ft | 399 kts | 229° |
| 2026-04-23 12:50 | -35.28245 | 149.57167 | 40115 ft | 400 kts | 229° |
| 2026-04-23 12:50 | -35.29863 | 149.54396 | 40215 ft | 401 kts | 230° |
| 2026-04-23 12:51 | -35.33122 | 149.48809 | 40401 ft | 404 kts | 230° |
| 2026-04-23 12:51 | -35.36395 | 149.43186 | 40508 ft | 407 kts | 230° |
| 2026-04-23 12:52 | -35.39706 | 149.37490 | 40533 ft | 413 kts | 230° |
| 2026-04-23 12:52 | -35.43062 | 149.31707 | 40527 ft | 418 kts | 230° |
| 2026-04-23 12:53 | -35.46432 | 149.25889 | 40527 ft | 424 kts | 230° |
| 2026-04-23 12:53 | -35.49866 | 149.19950 | 40524 ft | 429 kts | 230° |
| 2026-04-23 12:54 | -35.53336 | 149.13937 | 40530 ft | 433 kts | 230° |
| 2026-04-23 12:54 | -35.56836 | 149.07862 | 40535 ft | 437 kts | 230° |
| 2026-04-23 12:55 | -35.60329 | 149.01788 | 40542 ft | 439 kts | 230° |
| 2026-04-23 12:55 | -35.63861 | 148.95635 | 40527 ft | 440 kts | 230° |
| 2026-04-23 12:56 | -35.67392 | 148.89473 | 40528 ft | 440 kts | 230° |
| 2026-04-23 12:56 | -35.70910 | 148.83324 | 40524 ft | 439 kts | 230° |
| 2026-04-23 12:57 | -35.74421 | 148.77175 | 40529 ft | 438 kts | 230° |
| 2026-04-23 12:57 | -35.77906 | 148.71062 | 40521 ft | 438 kts | 230° |
| 2026-04-23 12:58 | -35.81394 | 148.64932 | 40527 ft | 436 kts | 230° |
| 2026-04-23 12:58 | -35.84878 | 148.58801 | 40529 ft | 435 kts | 230° |
| 2026-04-23 12:59 | -35.88339 | 148.52698 | 40530 ft | 434 kts | 230° |
| 2026-04-23 12:59 | -35.91766 | 148.46627 | 40526 ft | 434 kts | 230° |
| 2026-04-23 13:00 | -35.95207 | 148.40511 | 40515 ft | 433 kts | 230° |
| 2026-04-23 13:00 | -35.98649 | 148.34385 | 40506 ft | 433 kts | 230° |
| 2026-04-23 13:01 | -36.02077 | 148.28273 | 40520 ft | 432 kts | 230° |
| 2026-04-23 13:01 | -36.05482 | 148.22191 | 40493 ft | 432 kts | 230° |
| 2026-04-23 13:02 | -36.08901 | 148.16075 | 40491 ft | 431 kts | 230° |
| 2026-04-23 13:02 | -36.12307 | 148.09974 | 40494 ft | 430 kts | 230° |
| 2026-04-23 13:03 | -36.15709 | 148.03890 | 40488 ft | 430 kts | 230° |
| 2026-04-23 13:03 | -36.19112 | 147.97800 | 40489 ft | 430 kts | 230° |
| 2026-04-23 13:04 | -36.22512 | 147.91704 | 40480 ft | 430 kts | 230° |
| 2026-04-23 13:04 | -36.25882 | 147.85646 | 40475 ft | 429 kts | 230° |
| 2026-04-23 13:05 | -36.29270 | 147.79547 | 40479 ft | 429 kts | 230° |
| 2026-04-23 13:05 | -36.32655 | 147.73443 | 40483 ft | 429 kts | 230° |
| 2026-04-23 13:06 | -36.37722 | 147.64268 | 40485 ft | 429 kts | 230° |
| 2026-04-23 13:07 | -36.41070 | 147.58187 | 40482 ft | 428 kts | 231° |
| 2026-04-23 13:07 | -36.44437 | 147.52061 | 40479 ft | 429 kts | 231° |
| 2026-04-23 13:08 | -36.47794 | 147.45944 | 40476 ft | 428 kts | 231° |
| 2026-04-23 13:08 | -36.51147 | 147.39822 | 40485 ft | 428 kts | 231° |
| 2026-04-23 13:09 | -36.54499 | 147.33692 | 40484 ft | 428 kts | 231° |
| 2026-04-23 13:09 | -36.57849 | 147.27554 | 40480 ft | 429 kts | 231° |
| 2026-04-23 13:10 | -36.61195 | 147.21410 | 40474 ft | 429 kts | 231° |
| 2026-04-23 13:10 | -36.64524 | 147.15288 | 40478 ft | 429 kts | 231° |
| 2026-04-23 13:11 | -36.67863 | 147.09137 | 40467 ft | 429 kts | 231° |
| 2026-04-23 13:11 | -36.71201 | 147.02977 | 40481 ft | 429 kts | 231° |
| 2026-04-23 13:12 | -36.74544 | 146.96798 | 40475 ft | 429 kts | 231° |
| 2026-04-23 13:12 | -36.77873 | 146.90632 | 40487 ft | 429 kts | 231° |
| 2026-04-23 13:13 | -36.81206 | 146.84446 | 40477 ft | 429 kts | 231° |
| 2026-04-23 13:13 | -36.84533 | 146.78259 | 40483 ft | 429 kts | 232° |
| 2026-04-23 13:14 | -36.87861 | 146.72061 | 40474 ft | 429 kts | 232° |
| 2026-04-23 13:14 | -36.91176 | 146.65875 | 40481 ft | 428 kts | 232° |
| 2026-04-23 13:15 | -36.94468 | 146.59720 | 40483 ft | 428 kts | 232° |
| 2026-04-23 13:15 | -36.97703 | 146.53660 | 40470 ft | 429 kts | 232° |
| 2026-04-23 13:16 | -37.01012 | 146.47451 | 40469 ft | 429 kts | 232° |
| 2026-04-23 13:16 | -37.04319 | 146.41235 | 40468 ft | 429 kts | 232° |
| 2026-04-23 13:17 | -37.07626 | 146.35008 | 40465 ft | 430 kts | 232° |
| 2026-04-23 13:17 | -37.10910 | 146.28812 | 40446 ft | 426 kts | 232° |
| 2026-04-23 13:17 | -37.12523 | 146.25758 | 40297 ft | 414 kts | 232° |
| 2026-04-23 13:18 | -37.14092 | 146.22785 | 40112 ft | 404 kts | 232° |
| 2026-04-23 13:18 | -37.15626 | 146.19878 | 39866 ft | 396 kts | 232° |
| 2026-04-23 13:18 | -37.17142 | 146.17007 | 39538 ft | 392 kts | 232° |
| 2026-04-23 13:18 | -37.18638 | 146.14174 | 39100 ft | 390 kts | 232° |
| 2026-04-23 13:19 | -37.20138 | 146.11333 | 38432 ft | 392 kts | 232° |
| 2026-04-23 13:19 | -37.21653 | 146.08461 | 37699 ft | 396 kts | 232° |
| 2026-04-23 13:19 | -37.23179 | 146.05565 | 37033 ft | 399 kts | 232° |
| 2026-04-23 13:19 | -37.24690 | 146.02687 | 36819 ft | 388 kts | 232° |
| 2026-04-23 13:20 | -37.26145 | 145.99908 | 36548 ft | 376 kts | 232° |
| 2026-04-23 13:20 | -37.27570 | 145.97190 | 36117 ft | 370 kts | 232° |
| 2026-04-23 13:20 | -37.28983 | 145.94499 | 35562 ft | 368 kts | 232° |
| 2026-04-23 13:20 | -37.30394 | 145.91811 | 34860 ft | 370 kts | 232° |
| 2026-04-23 13:21 | -37.31804 | 145.89127 | 34079 ft | 374 kts | 232° |
| 2026-04-23 13:21 | -37.33262 | 145.86355 | 33238 ft | 377 kts | 232° |
| 2026-04-23 13:21 | -37.34694 | 145.83627 | 32455 ft | 379 kts | 233° |
| 2026-04-23 13:21 | -37.36153 | 145.80847 | 31660 ft | 381 kts | 233° |
| 2026-04-23 13:22 | -37.37618 | 145.78050 | 30838 ft | 384 kts | 233° |
| 2026-04-23 13:22 | -37.39095 | 145.75229 | 29931 ft | 387 kts | 234° |
| 2026-04-23 13:22 | -37.40555 | 145.72435 | 28952 ft | 389 kts | 234° |
| 2026-04-23 13:22 | -37.42049 | 145.69577 | 27933 ft | 393 kts | 234° |
| 2026-04-23 13:23 | -37.43559 | 145.66686 | 26887 ft | 396 kts | 234° |
| 2026-04-23 13:23 | -37.45076 | 145.63778 | 25890 ft | 399 kts | 234° |
| 2026-04-23 13:23 | -37.46656 | 145.60910 | 25118 ft | 396 kts | 232° |
| 2026-04-23 13:23 | -37.48281 | 145.58147 | 24455 ft | 390 kts | 231° |
| 2026-04-23 13:24 | -37.49880 | 145.55462 | 23723 ft | 386 kts | 232° |
| 2026-04-23 13:24 | -37.51500 | 145.52722 | 22897 ft | 383 kts | 232° |
| 2026-04-23 13:24 | -37.53068 | 145.50040 | 22155 ft | 379 kts | 232° |
| 2026-04-23 13:24 | -37.54606 | 145.47393 | 21474 ft | 378 kts | 232° |
| 2026-04-23 13:25 | -37.56137 | 145.44748 | 21307 ft | 367 kts | 232° |
| 2026-04-23 13:25 | -37.57614 | 145.42195 | 21218 ft | 352 kts | 233° |
| 2026-04-23 13:25 | -37.59020 | 145.39764 | 21086 ft | 333 kts | 233° |
| 2026-04-23 13:25 | -37.60354 | 145.37456 | 20822 ft | 321 kts | 233° |
| 2026-04-23 13:26 | -37.61661 | 145.35195 | 20278 ft | 319 kts | 233° |
| 2026-04-23 13:26 | -37.62970 | 145.32931 | 19714 ft | 319 kts | 233° |
| 2026-04-23 13:26 | -37.64275 | 145.30672 | 19194 ft | 317 kts | 233° |
| 2026-04-23 13:26 | -37.65543 | 145.28459 | 18715 ft | 314 kts | 233° |
| 2026-04-23 13:27 | -37.66815 | 145.26212 | 18179 ft | 311 kts | 234° |
| 2026-04-23 13:27 | -37.68065 | 145.23997 | 17663 ft | 309 kts | 234° |
| 2026-04-23 13:27 | -37.69303 | 145.21800 | 17140 ft | 307 kts | 234° |
| 2026-04-23 13:27 | -37.70541 | 145.19604 | 16639 ft | 305 kts | 234° |
| 2026-04-23 13:28 | -37.71771 | 145.17424 | 16142 ft | 303 kts | 234° |
| 2026-04-23 13:28 | -37.72977 | 145.15289 | 15661 ft | 302 kts | 234° |
| 2026-04-23 13:28 | -37.74196 | 145.13130 | 15181 ft | 300 kts | 234° |
| 2026-04-23 13:28 | -37.75394 | 145.11010 | 14711 ft | 299 kts | 234° |
| 2026-04-23 13:29 | -37.76604 | 145.08875 | 14241 ft | 298 kts | 234° |
| 2026-04-23 13:29 | -37.77806 | 145.06761 | 13727 ft | 296 kts | 234° |
| 2026-04-23 13:29 | -37.79015 | 145.04649 | 13210 ft | 295 kts | 234° |
| 2026-04-23 13:29 | -37.80229 | 145.02544 | 12713 ft | 297 kts | 234° |
| 2026-04-23 13:30 | -37.81449 | 145.00448 | 12228 ft | 302 kts | 234° |
| 2026-04-23 13:30 | -37.82696 | 144.98321 | 11784 ft | 299 kts | 234° |
| 2026-04-23 13:30 | -37.83966 | 144.96264 | 11305 ft | 294 kts | 226° |
| 2026-04-23 13:30 | -37.85039 | 144.95234 | 10975 ft | 291 kts | 208° |
| 2026-04-23 13:31 | -37.87628 | 144.94572 | 10341 ft | 285 kts | 176° |
| 2026-04-23 13:31 | -37.88927 | 144.94727 | 10018 ft | 283 kts | 173° |
| 2026-04-23 13:31 | -37.90877 | 144.95041 | 9502 ft | 282 kts | 172° |
| 2026-04-23 13:31 | -37.93475 | 144.95481 | 8814 ft | 280 kts | 172° |
| 2026-04-23 13:32 | -37.95380 | 144.95805 | 8316 ft | 278 kts | 172° |
| 2026-04-23 13:32 | -37.96674 | 144.96024 | 7985 ft | 277 kts | 172° |
| 2026-04-23 13:32 | -37.99191 | 144.96445 | 7343 ft | 274 kts | 172° |
| 2026-04-23 13:32 | -38.00450 | 144.96653 | 7026 ft | 273 kts | 172° |
| 2026-04-23 13:33 | -38.02325 | 144.96960 | 6529 ft | 270 kts | 172° |
| 2026-04-23 13:33 | -38.04179 | 144.97145 | 6144 ft | 264 kts | 186° |
| 2026-04-23 13:33 | -38.05819 | 144.96241 | 5813 ft | 259 kts | 223° |
| 2026-04-23 13:33 | -38.06717 | 144.94350 | 5494 ft | 246 kts | 259° |
| 2026-04-23 13:34 | -38.06541 | 144.92307 | 5222 ft | 230 kts | 298° |
| 2026-04-23 13:34 | -38.05455 | 144.90968 | 4953 ft | 215 kts | 339° |
| 2026-04-23 13:34 | -38.04033 | 144.90593 | 4726 ft | 205 kts | 352° |
| 2026-04-23 13:34 | -38.02641 | 144.90360 | 4461 ft | 198 kts | 353° |
| 2026-04-23 13:35 | -38.01291 | 144.90129 | 4205 ft | 193 kts | 352° |
| 2026-04-23 13:35 | -37.99993 | 144.89899 | 3953 ft | 188 kts | 352° |
| 2026-04-23 13:35 | -37.98708 | 144.89665 | 3710 ft | 185 kts | 352° |
| 2026-04-23 13:35 | -37.97444 | 144.89433 | 3458 ft | 183 kts | 352° |
| 2026-04-23 13:36 | -37.96190 | 144.89202 | 3209 ft | 182 kts | 352° |
| 2026-04-23 13:36 | -37.94929 | 144.88969 | 2958 ft | 182 kts | 352° |
| 2026-04-23 13:36 | -37.93676 | 144.88738 | 2709 ft | 182 kts | 352° |
| 2026-04-23 13:36 | -37.92425 | 144.88507 | 2537 ft | 181 kts | 353° |
| 2026-04-23 13:37 | -37.91164 | 144.88274 | 2516 ft | 184 kts | 352° |
| 2026-04-23 13:37 | -37.89921 | 144.88044 | 2499 ft | 181 kts | 352° |
| 2026-04-23 13:37 | -37.88685 | 144.87816 | 2506 ft | 179 kts | 353° |
| 2026-04-23 13:37 | -37.87446 | 144.87587 | 2502 ft | 181 kts | 352° |
| 2026-04-23 13:38 | -37.86197 | 144.87356 | 2497 ft | 181 kts | 353° |
| 2026-04-23 13:38 | -37.84943 | 144.87125 | 2490 ft | 181 kts | 353° |
| 2026-04-23 13:38 | -37.83713 | 144.86897 | 2493 ft | 181 kts | 353° |
| 2026-04-23 13:38 | -37.82466 | 144.86667 | 2494 ft | 181 kts | 353° |
| 2026-04-23 13:39 | -37.81223 | 144.86437 | 2496 ft | 181 kts | 353° |
| 2026-04-23 13:39 | -37.79976 | 144.86207 | 2505 ft | 181 kts | 353° |
| 2026-04-23 13:39 | -37.78717 | 144.85974 | 2363 ft | 184 kts | 353° |
| 2026-04-23 13:39 | -37.77473 | 144.85744 | 2126 ft | 175 kts | 353° |
| 2026-04-23 13:40 | -37.76314 | 144.85530 | 1898 ft | 163 kts | 353° |
| 2026-04-23 13:40 | -37.75268 | 144.85336 | 1714 ft | 144 kts | 353° |
| 2026-04-23 13:40 | -37.74290 | 144.85156 | 1520 ft | 139 kts | 352° |
| 2026-04-23 13:40 | -37.73334 | 144.84979 | 1340 ft | 139 kts | 352° |
| 2026-04-23 13:41 | -37.72370 | 144.84801 | 1144 ft | 140 kts | 352° |
| 2026-04-23 13:41 | -37.71413 | 144.84624 | 961 ft | 138 kts | 353° |
| 2026-04-23 13:41 | -37.70474 | 144.84450 | 770 ft | 135 kts | 353° |
| 2026-04-23 13:41 | -37.69575 | 144.84284 | 624 ft | 130 kts | 352° |
| 2026-04-23 13:42 | -37.68682 | 144.84119 | 429 ft | 128 kts | 352° |
| 2026-04-23 13:42 | -37.67798 | 144.83946 | 360 ft | 128 kts | 351° |
| 2026-04-23 13:42 | -37.66922 | 144.83789 | 388 ft | 119 kts | 352° |
| 2026-04-23 13:42 | -37.66291 | 144.83672 | 409 ft | 63 kts | 352° |
| 2026-04-23 13:43 | -37.65896 | 144.83598 | 417 ft | 52 kts | 352° |
| 2026-04-23 13:43 | -37.65668 | 144.83566 | 422 ft | 16 kts | 10° |
| 2026-04-23 13:43 | -37.65591 | 144.83656 | 426 ft | 16 kts | 73° |
| 2026-04-23 13:43 | -37.65605 | 144.83755 | 422 ft | 11 kts | 137° |
| 2026-04-23 13:44 | -37.65635 | 144.83768 | 421 ft | 1 kts | 172° |
| 2026-04-23 13:44 | -37.65647 | 144.83770 | 420 ft | 3 kts | 172° |
| 2026-04-23 13:44 | -37.65675 | 144.83775 | 422 ft | 6 kts | 172° |
| 2026-04-23 13:44 | -37.65727 | 144.83785 | 419 ft | 10 kts | 171° |
| 2026-04-23 13:45 | -37.65809 | 144.83801 | 420 ft | 13 kts | 173° |
| 2026-04-23 13:45 | -37.65905 | 144.83818 | 418 ft | 15 kts | 172° |
| 2026-04-23 13:45 | -37.66012 | 144.83838 | 412 ft | 7 kts | 171° |
| 2026-04-23 13:45 | -37.66026 | 144.83840 | 418 ft | 5 kts | 171° |
| 2026-04-23 13:46 | -37.66076 | 144.83850 | 412 ft | 10 kts | 172° |
| 2026-04-23 13:46 | -37.66152 | 144.83864 | 408 ft | 13 kts | 172° |
| 2026-04-23 13:46 | -37.66230 | 144.83878 | 411 ft | 11 kts | 171° |
| 2026-04-23 13:46 | -37.66306 | 144.83893 | 410 ft | 11 kts | 171° |
| 2026-04-23 13:47 | -37.66389 | 144.83908 | 409 ft | 12 kts | 172° |
| 2026-04-23 13:47 | -37.66483 | 144.83925 | 404 ft | 16 kts | 171° |
| 2026-04-23 13:47 | -37.66584 | 144.83945 | 398 ft | 16 kts | 171° |
| 2026-04-23 13:47 | -37.66675 | 144.83962 | 396 ft | 12 kts | 171° |
| 2026-04-23 13:48 | -37.66720 | 144.84042 | 392 ft | 13 kts | 84° |
| 2026-04-23 13:48 | -37.66708 | 144.84150 | 394 ft | 11 kts | 80° |
| 2026-04-23 13:48 | -37.66695 | 144.84243 | 395 ft | 11 kts | 81° |
| 2026-04-23 13:48 | -37.66686 | 144.84333 | 394 ft | 10 kts | 82° |
| 2026-04-23 13:49 | -37.66677 | 144.84408 | 397 ft | 7 kts | 81° |
| 2026-04-23 13:49 | -37.66671 | 144.84455 | 397 ft | 5 kts | 81° |
| 2026-04-23 13:49 | -37.66660 | 144.84496 | 392 ft | 5 kts | 51° |
| 2026-04-23 13:49 | -37.66631 | 144.84507 | 396 ft | 0 kts | 358° |
| 2026-04-23 13:50 | -37.66623 | 144.84505 | 398 ft | 3 kts | 349° |
| 2026-04-23 13:50 | -37.66601 | 144.84493 | 400 ft | 4 kts | 332° |
| 2026-04-23 13:51 | -37.66580 | 144.84487 | 401 ft | 3 kts | 351° |
| 2026-04-23 13:51 | -37.66572 | 144.84486 | 401 ft | 1 kts | 352° |
| 2026-04-23 13:51 | -37.66570 | 144.84485 | 401 ft | 0 kts | 352° |